Carmo, Brazil
Current Conditions -  °F | °C
As of 8:00 AM on Sunday 21 Dec 2014 (Local Time) from SBME Reporting Station
Clear Clear  
Wind Chill: 90°   Ceiling: Unl
Heat Index: 100°   Visibility: 6mi
Dew Point: 75°   Wind: 7mph
Humidity: 62%   Direction: 30°NNE
Pressure: 29.8"   Gusts: NA
Location:  21.93°S, 42.61°W
Report Text: SBME 211000Z 03006KT CAVOK 32/24 Q1009
Loading
Personal Weather Stations






























Interactive Weather Map New forecast layout! Learn more

10-Day Weather Forecast

Advertisements
Track Severe Weather on mobile